Time,TemperatureF,DewpointF,PressureIn,WindDirection,WindDirectionDegrees,WindSpeedMPH,WindSpeedGustMPH,Humidity,HourlyPrecipIn,Conditions,Clouds,dailyrainin,SoftwareType,DateUTC
2013-02-07 00:02:00,32.7,28.1,30.12,SSE,157,0.0,0.0,83,0.00,,,0.00,WUHU21623XXSP,2013-02-07 06:02:00,
2013-02-07 00:07:00,32.5,27.9,30.12,SE,135,0.0,0.0,83,0.00,,,0.00,WUHU21623XXSP,2013-02-07 06:07:00,
2013-02-07 00:12:00,32.5,28.2,30.12,SSE,157,0.0,0.0,84,0.00,,,0.00,WUHU21623XXSP,2013-02-07 06:12:00,
2013-02-07 00:17:00,32.4,28.1,30.12,SSE,157,2.0,2.0,84,0.00,,,0.00,WUHU21623XXSP,2013-02-07 06:17:00,
2013-02-07 00:22:00,32.4,28.1,30.12,SSE,157,1.8,2.0,84,0.00,,,0.00,WUHU21623XXSP,2013-02-07 06:22:00,
2013-02-07 00:27:00,32.4,28.1,30.12,SE,135,5.8,5.8,84,0.00,,,0.00,WUHU21623XXSP,2013-02-07 06:27:00,
2013-02-07 00:32:00,32.2,27.9,30.12,SSE,157,0.0,5.8,84,0.00,,,0.00,WUHU21623XXSP,2013-02-07 06:32:00,
2013-02-07 00:37:00,32.2,27.9,30.11,SSE,157,4.5,5.4,84,0.00,,,0.00,WUHU21623XXSP,2013-02-07 06:37:00,
2013-02-07 00:42:00,32.2,27.9,30.11,SSE,157,6.0,6.0,84,0.00,,,0.00,WUHU21623XXSP,2013-02-07 06:42:00,
2013-02-07 00:47:00,32.2,27.9,30.10,SSE,157,2.7,6.0,84,0.00,,,0.00,WUHU21623XXSP,2013-02-07 06:47:00,
2013-02-07 00:52:00,32.2,27.9,30.10,SSE,157,6.0,6.7,84,0.00,,,0.00,WUHU21623XXSP,2013-02-07 06:52:00,
2013-02-07 00:57:00,32.2,27.9,30.09,SSE,157,0.0,6.7,84,0.00,,,0.00,WUHU21623XXSP,2013-02-07 06:57:00,
2013-02-07 01:02:00,32.2,28.2,30.09,SSE,157,9.2,9.2,85,0.00,,,0.00,WUHU21623XXSP,2013-02-07 07:02:00,
2013-02-07 01:07:00,32.2,28.2,30.08,SSE,157,7.4,9.2,85,0.00,,,0.00,WUHU21623XXSP,2013-02-07 07:07:00,
2013-02-07 01:13:00,32.2,28.2,30.09,SE,135,0.0,9.2,85,0.00,,,0.00,WUHU21623XXSP,2013-02-07 07:13:00,
2013-02-07 01:18:00,32.2,28.2,30.09,SE,135,0.0,5.4,85,0.00,,,0.00,WUHU21623XXSP,2013-02-07 07:18:00,
2013-02-07 01:23:00,32.2,28.2,30.09,SSE,157,6.9,6.9,85,0.00,,,0.00,WUHU21623XXSP,2013-02-07 07:23:00,
2013-02-07 01:28:00,32.2,28.2,30.09,SE,135,2.9,6.9,85,0.00,,,0.00,WUHU21623XXSP,2013-02-07 07:28:00,
2013-02-07 01:33:00,32.0,28.0,30.09,SE,135,2.0,5.8,85,0.00,,,0.00,WUHU21623XXSP,2013-02-07 07:33:00,
2013-02-07 01:38:00,31.8,27.9,30.09,SSE,157,5.8,5.8,86,0.00,,,0.00,WUHU21623XXSP,2013-02-07 07:38:00,
2013-02-07 01:43:00,31.8,28.1,30.08,SSE,157,8.3,8.3,86,0.00,,,0.00,WUHU21623XXSP,2013-02-07 07:43:00,
2013-02-07 01:48:00,31.8,28.1,30.08,SE,135,3.6,8.3,86,0.00,,,0.00,WUHU21623XXSP,2013-02-07 07:48:00,
2013-02-07 01:53:00,31.8,28.1,30.08,SSE,157,8.3,8.3,86,0.00,,,0.00,WUHU21623XXSP,2013-02-07 07:53:00,
2013-02-07 01:58:00,31.8,28.1,30.08,SSE,157,1.6,8.3,86,0.00,,,0.00,WUHU21623XXSP,2013-02-07 07:58:00,
2013-02-07 02:03:00,31.8,28.1,30.08,SE,135,0.0,5.8,86,0.00,,,0.00,WUHU21623XXSP,2013-02-07 08:03:00,
2013-02-07 02:08:00,32.2,28.5,30.08,SSE,157,3.8,6.7,86,0.00,,,0.00,WUHU21623XXSP,2013-02-07 08:08:00,
2013-02-07 02:13:00,32.2,28.5,30.08,SE,135,0.0,6.7,86,0.00,,,0.00,WUHU21623XXSP,2013-02-07 08:13:00,
2013-02-07 02:18:00,32.2,28.5,30.08,SSE,157,0.0,5.6,86,0.00,,,0.00,WUHU21623XXSP,2013-02-07 08:18:00,
2013-02-07 02:23:00,32.2,28.5,30.08,SE,135,0.0,6.5,86,0.00,,,0.00,WUHU21623XXSP,2013-02-07 08:23:00,
2013-02-07 02:28:00,32.2,28.5,30.08,SSE,157,0.0,6.5,86,0.00,,,0.00,WUHU21623XXSP,2013-02-07 08:28:00,
2013-02-07 02:33:00,32.2,28.5,30.08,SSE,157,0.0,6.0,86,0.00,,,0.00,WUHU21623XXSP,2013-02-07 08:33:00,
2013-02-07 02:38:00,32.2,28.5,30.08,SSE,157,2.5,6.0,86,0.00,,,0.00,WUHU21623XXSP,2013-02-07 08:38:00,
2013-02-07 02:43:00,32.2,28.5,30.08,SSE,157,0.0,2.5,86,0.00,,,0.00,WUHU21623XXSP,2013-02-07 08:43:00,
2013-02-07 02:48:00,32.4,28.7,30.08,SSE,157,0.0,0.0,86,0.00,,,0.00,WUHU21623XXSP,2013-02-07 08:48:00,
2013-02-07 02:53:00,32.4,28.9,30.08,SSE,157,0.0,0.0,87,0.00,,,0.00,WUHU21623XXSP,2013-02-07 08:53:00,
2013-02-07 02:58:00,32.4,28.9,30.08,SSE,157,0.0,0.0,87,0.00,,,0.00,WUHU21623XXSP,2013-02-07 08:58:00,
2013-02-07 03:03:00,32.4,28.9,30.07,SE,135,0.0,0.0,87,0.00,,,0.00,WUHU21623XXSP,2013-02-07 09:03:00,
2013-02-07 03:08:00,32.4,28.9,30.07,SE,135,0.0,0.0,87,0.00,,,0.00,WUHU21623XXSP,2013-02-07 09:08:00,
2013-02-07 03:13:00,32.4,28.9,30.07,SE,135,0.0,0.0,87,0.00,,,0.00,WUHU21623XXSP,2013-02-07 09:13:00,
2013-02-07 03:18:00,32.4,28.9,30.07,SE,135,0.0,0.0,87,0.00,,,0.00,WUHU21623XXSP,2013-02-07 09:18:00,
2013-02-07 03:23:00,32.4,28.9,30.07,SE,135,0.0,0.0,87,0.00,,,0.00,WUHU21623XXSP,2013-02-07 09:23:00,
2013-02-07 03:28:00,32.4,28.9,30.08,SE,135,0.0,0.0,87,0.00,,,0.00,WUHU21623XXSP,2013-02-07 09:28:00,
2013-02-07 03:33:00,32.4,28.9,30.08,SE,135,0.0,0.0,87,0.00,,,0.00,WUHU21623XXSP,2013-02-07 09:33:00,
2013-02-07 03:38:00,32.5,29.1,30.08,SE,135,0.0,0.0,87,0.00,,,0.00,WUHU21623XXSP,2013-02-07 09:38:00,
2013-02-07 03:43:00,32.5,29.1,30.09,SE,135,0.0,0.0,87,0.00,,,0.00,WUHU21623XXSP,2013-02-07 09:43:00,
2013-02-07 03:48:00,32.5,29.1,30.09,ESE,112,0.0,1.1,87,0.00,,,0.00,WUHU21623XXSP,2013-02-07 09:48:00,
2013-02-07 03:53:00,32.5,29.1,30.09,ESE,112,0.0,1.1,87,0.00,,,0.00,WUHU21623XXSP,2013-02-07 09:53:00,
2013-02-07 03:59:00,32.5,29.1,30.09,ESE,112,0.0,0.0,87,0.00,,,0.00,WUHU21623XXSP,2013-02-07 09:59:00,
2013-02-07 04:04:00,32.5,29.1,30.09,ESE,112,0.0,0.0,87,0.00,,,0.00,WUHU21623XXSP,2013-02-07 10:04:00,
2013-02-07 04:09:00,32.5,29.1,30.09,ESE,112,0.0,0.0,87,0.00,,,0.00,WUHU21623XXSP,2013-02-07 10:09:00,
2013-02-07 04:14:00,32.5,29.1,30.09,ESE,112,0.0,0.0,87,0.00,,,0.00,WUHU21623XXSP,2013-02-07 10:14:00,
2013-02-07 04:19:00,32.5,29.1,30.09,ESE,112,0.0,0.0,87,0.00,,,0.00,WUHU21623XXSP,2013-02-07 10:19:00,
2013-02-07 04:24:00,32.5,29.1,30.09,ESE,112,0.0,0.0,87,0.00,,,0.00,WUHU21623XXSP,2013-02-07 10:24:00,
2013-02-07 04:29:00,32.5,29.1,30.09,ESE,112,0.0,0.0,87,0.00,,,0.00,WUHU21623XXSP,2013-02-07 10:29:00,
2013-02-07 04:34:00,32.5,29.1,30.09,ESE,112,0.0,0.0,87,0.00,,,0.00,WUHU21623XXSP,2013-02-07 10:34:00,
2013-02-07 04:39:00,32.5,29.1,30.09,ESE,112,0.0,0.0,87,0.00,,,0.00,WUHU21623XXSP,2013-02-07 10:39:00,
2013-02-07 04:44:00,32.5,29.4,30.09,ESE,112,0.0,0.0,88,0.00,,,0.00,WUHU21623XXSP,2013-02-07 10:44:00,
2013-02-07 04:49:00,32.4,29.2,30.10,ESE,112,0.0,0.0,88,0.00,,,0.00,WUHU21623XXSP,2013-02-07 10:49:00,
2013-02-07 04:54:00,32.5,29.4,30.09,ESE,112,0.0,0.0,88,0.00,,,0.00,WUHU21623XXSP,2013-02-07 10:54:00,
2013-02-07 05:00:00,32.5,29.4,30.09,ESE,112,0.0,0.0,88,0.00,,,0.00,WUHU21623XXSP,2013-02-07 11:00:00,
2013-02-07 05:05:00,32.5,29.4,30.09,ESE,112,0.0,0.0,88,0.00,,,0.00,WUHU21623XXSP,2013-02-07 11:05:00,
2013-02-07 05:10:00,32.5,29.4,30.09,ESE,112,0.0,0.0,88,0.00,,,0.00,WUHU21623XXSP,2013-02-07 11:10:00,
2013-02-07 05:15:00,32.5,29.4,30.09,ESE,112,0.0,0.0,88,0.00,,,0.00,WUHU21623XXSP,2013-02-07 11:15:00,
2013-02-07 05:20:00,32.5,29.4,30.09,SE,135,2.0,2.0,88,0.00,,,0.00,WUHU21623XXSP,2013-02-07 11:20:00,
2013-02-07 05:25:00,32.5,29.4,30.09,SE,135,1.8,2.5,88,0.00,,,0.00,WUHU21623XXSP,2013-02-07 11:25:00,
2013-02-07 05:30:00,32.5,29.4,30.09,SE,135,5.6,5.6,88,0.00,,,0.00,WUHU21623XXSP,2013-02-07 11:30:00,
2013-02-07 05:35:00,32.5,29.4,30.08,SE,135,5.1,5.6,88,0.00,,,0.00,WUHU21623XXSP,2013-02-07 11:35:00,
2013-02-07 05:40:00,32.5,29.4,30.08,SE,135,2.9,5.1,88,0.00,,,0.00,WUHU21623XXSP,2013-02-07 11:40:00,
2013-02-07 05:45:00,32.5,29.4,30.06,SE,135,6.7,8.7,88,0.00,,,0.00,WUHU21623XXSP,2013-02-07 11:45:00,
2013-02-07 05:50:00,32.5,29.4,30.06,SE,135,8.7,8.7,88,0.00,,,0.00,WUHU21623XXSP,2013-02-07 11:50:00,
2013-02-07 05:55:00,32.5,29.4,30.06,SE,135,6.9,8.7,88,0.00,,,0.00,WUHU21623XXSP,2013-02-07 11:55:00,
2013-02-07 06:00:00,32.5,29.4,30.05,SE,135,10.3,10.3,88,0.00,,,0.00,WUHU21623XXSP,2013-02-07 12:00:00,
2013-02-07 06:05:00,32.5,29.4,30.05,SE,135,6.9,10.3,88,0.00,,,0.00,WUHU21623XXSP,2013-02-07 12:05:00,
2013-02-07 06:11:00,32.5,29.4,30.05,SSE,157,3.6,6.9,88,0.00,,,0.00,WUHU21623XXSP,2013-02-07 12:11:00,
2013-02-07 06:16:00,32.7,29.8,30.06,ESE,112,0.0,6.9,89,0.00,,,0.00,WUHU21623XXSP,2013-02-07 12:16:00,
2013-02-07 06:21:00,32.7,29.8,30.07,SSE,157,0.0,0.0,89,0.00,,,0.00,WUHU21623XXSP,2013-02-07 12:21:00,
2013-02-07 06:26:00,32.7,29.8,30.06,SE,135,4.7,4.7,89,0.00,,,0.00,WUHU21623XXSP,2013-02-07 12:26:00,
2013-02-07 06:32:00,32.7,29.8,30.05,SE,135,0.2,4.7,89,0.00,,,0.00,WUHU21623XXSP,2013-02-07 12:32:00,
2013-02-07 06:37:00,32.7,29.8,30.06,SE,135,2.0,7.2,89,0.00,,,0.00,WUHU21623XXSP,2013-02-07 12:37:00,
2013-02-07 06:42:00,32.7,29.6,30.05,SE,135,3.8,7.2,88,0.00,,,0.00,WUHU21623XXSP,2013-02-07 12:42:00,
2013-02-07 06:47:00,32.7,29.6,30.05,SSE,157,7.8,7.8,88,0.00,,,0.00,WUHU21623XXSP,2013-02-07 12:47:00,
2013-02-07 06:52:00,32.7,29.6,30.05,SE,135,2.5,7.8,88,0.00,,,0.00,WUHU21623XXSP,2013-02-07 12:52:00,
2013-02-07 06:57:00,32.7,29.6,30.05,SE,135,6.9,7.8,88,0.00,,,0.00,WUHU21623XXSP,2013-02-07 12:57:00,
2013-02-07 07:02:00,32.7,29.6,30.05,SE,135,3.4,6.9,88,0.00,,,0.00,WUHU21623XXSP,2013-02-07 13:02:00,
2013-02-07 07:07:00,32.7,29.6,30.06,SSE,157,7.8,7.8,88,0.00,,,0.00,WUHU21623XXSP,2013-02-07 13:07:00,
2013-02-07 07:12:00,32.7,29.6,30.05,SSE,157,8.3,8.3,88,0.00,,,0.00,WUHU21623XXSP,2013-02-07 13:12:00,
2013-02-07 07:17:00,32.7,29.6,30.05,SE,135,7.6,8.3,88,0.00,,,0.00,WUHU21623XXSP,2013-02-07 13:17:00,
2013-02-07 07:22:00,32.7,29.6,30.04,SSE,157,5.8,8.9,88,0.00,,,0.00,WUHU21623XXSP,2013-02-07 13:22:00,
2013-02-07 07:27:00,32.7,29.8,30.04,SE,135,6.7,8.9,89,0.00,,,0.00,WUHU21623XXSP,2013-02-07 13:27:00,
2013-02-07 07:32:00,32.7,29.8,30.04,SSE,157,6.5,8.1,89,0.00,,,0.00,WUHU21623XXSP,2013-02-07 13:32:00,
2013-02-07 07:37:00,32.9,30.0,30.03,SE,135,6.3,8.1,89,0.00,,,0.00,WUHU21623XXSP,2013-02-07 13:37:00,
2013-02-07 07:42:00,32.9,30.0,30.03,SE,135,6.9,8.7,89,0.00,,,0.00,WUHU21623XXSP,2013-02-07 13:42:00,
2013-02-07 07:47:00,32.9,30.0,30.02,SE,135,7.6,8.7,89,0.00,,,0.00,WUHU21623XXSP,2013-02-07 13:47:00,
2013-02-07 07:52:00,32.9,30.0,30.02,SSE,157,12.8,12.8,89,0.00,,,0.00,WUHU21623XXSP,2013-02-07 13:52:00,
2013-02-07 07:57:00,32.9,30.0,30.02,SSE,157,8.3,12.8,89,0.00,,,0.00,WUHU21623XXSP,2013-02-07 13:57:00,
2013-02-07 08:02:00,33.1,30.2,30.02,SSE,157,4.0,8.3,89,0.00,,,0.00,WUHU21623XXSP,2013-02-07 14:02:00,
2013-02-07 08:07:00,33.1,30.2,30.03,SE,135,0.0,8.3,89,0.00,,,0.00,WUHU21623XXSP,2013-02-07 14:07:00,
2013-02-07 08:12:00,33.1,30.2,30.02,SE,135,7.4,7.4,89,0.00,,,0.00,WUHU21623XXSP,2013-02-07 14:12:00,
2013-02-07 08:17:00,33.1,30.2,30.03,SE,135,5.4,7.4,89,0.00,,,0.00,WUHU21623XXSP,2013-02-07 14:17:00,
2013-02-07 08:23:00,33.1,30.2,30.03,SSE,157,3.6,7.4,89,0.00,,,0.00,WUHU21623XXSP,2013-02-07 14:23:00,
2013-02-07 08:28:00,33.3,30.2,30.03,SSE,157,6.9,6.9,89,0.00,,,0.00,WUHU21623XXSP,2013-02-07 14:28:00,
2013-02-07 08:33:00,33.3,30.3,30.02,SE,135,4.9,8.3,89,0.00,,,0.00,WUHU21623XXSP,2013-02-07 14:33:00,
2013-02-07 08:38:00,33.6,30.6,30.02,SE,135,4.5,8.3,89,0.00,,,0.00,WUHU21623XXSP,2013-02-07 14:38:00,
2013-02-07 08:43:00,33.4,30.5,30.02,SSE,157,3.4,9.4,89,0.00,,,0.00,WUHU21623XXSP,2013-02-07 14:43:00,
2013-02-07 08:48:00,33.6,30.6,30.02,SSE,157,3.8,9.4,89,0.00,,,0.00,WUHU21623XXSP,2013-02-07 14:48:00,
2013-02-07 08:53:00,34.0,31.0,30.02,SE,135,6.0,7.2,89,0.00,,,0.00,WUHU21623XXSP,2013-02-07 14:53:00,
2013-02-07 08:58:00,34.2,31.2,30.02,SSE,157,7.4,7.4,89,0.00,,,0.00,WUHU21623XXSP,2013-02-07 14:58:00,
2013-02-07 09:03:00,34.3,31.4,30.02,SSE,157,7.6,7.6,89,0.00,,,0.00,WUHU21623XXSP,2013-02-07 15:03:00,
2013-02-07 09:08:00,34.3,31.4,30.01,SSE,157,2.2,8.3,88,0.00,,,0.00,WUHU21623XXSP,2013-02-07 15:08:00,
2013-02-07 09:13:00,34.7,31.2,30.01,SSE,157,0.2,8.3,88,0.00,,,0.00,WUHU21623XXSP,2013-02-07 15:13:00,
2013-02-07 09:18:00,35.2,32.0,30.01,SSE,157,6.3,7.4,88,0.00,,,0.00,WUHU21623XXSP,2013-02-07 15:18:00,
2013-02-07 09:23:00,35.4,32.1,30.02,SE,135,0.0,7.4,88,0.00,,,0.00,WUHU21623XXSP,2013-02-07 15:23:00,
2013-02-07 09:28:00,35.8,32.5,30.01,SE,135,0.0,6.9,88,0.00,,,0.00,WUHU21623XXSP,2013-02-07 15:28:00,
2013-02-07 09:33:00,36.0,32.7,30.01,SE,135,0.0,6.0,88,0.00,,,0.00,WUHU21623XXSP,2013-02-07 15:33:00,
2013-02-07 09:38:00,36.1,32.9,30.01,SSE,157,6.5,6.5,88,0.00,,,0.00,WUHU21623XXSP,2013-02-07 15:38:00,
2013-02-07 09:43:00,36.3,32.8,30.01,SSE,157,3.8,6.5,87,0.00,,,0.00,WUHU21623XXSP,2013-02-07 15:43:00,
2013-02-07 09:48:00,36.7,33.1,30.01,SE,135,6.9,6.9,87,0.00,,,0.00,WUHU21623XXSP,2013-02-07 15:48:00,
2013-02-07 09:54:00,36.9,33.3,30.00,SSE,157,8.3,8.3,87,0.00,,,0.00,WUHU21623XXSP,2013-02-07 15:54:00,
2013-02-07 09:59:00,37.2,33.7,30.00,SSE,157,2.5,8.3,87,0.00,,,0.00,WUHU21623XXSP,2013-02-07 15:59:00,
2013-02-07 10:05:00,37.6,33.7,30.00,South,180,6.0,7.6,86,0.00,,,0.00,WUHU21623XXSP,2013-02-07 16:05:00,
2013-02-07 10:10:00,37.6,33.7,30.00,South,180,6.0,7.6,86,0.00,,,0.00,WUHU21623XXSP,2013-02-07 16:10:00,
2013-02-07 10:16:00,37.6,33.4,30.00,SSE,157,7.6,7.6,85,0.00,,,0.00,WUHU21623XXSP,2013-02-07 16:16:00,
2013-02-07 10:21:00,37.4,33.4,30.00,SE,135,6.3,7.6,85,0.00,,,0.00,WUHU21623XXSP,2013-02-07 16:21:00,
2013-02-07 10:26:00,37.2,33.1,29.99,SE,135,5.8,6.3,85,0.00,,,0.00,WUHU21623XXSP,2013-02-07 16:26:00,
2013-02-07 10:31:00,37.2,33.1,30.00,SE,135,0.0,6.3,85,0.00,,,0.00,WUHU21623XXSP,2013-02-07 16:31:00,
2013-02-07 10:36:00,37.2,33.1,30.00,SSE,157,0.0,0.0,85,0.00,,,0.00,WUHU21623XXSP,2013-02-07 16:36:00,
2013-02-07 10:41:00,37.2,33.1,30.00,SE,135,0.0,0.0,85,0.00,,,0.00,WUHU21623XXSP,2013-02-07 16:41:00,
2013-02-07 10:47:00,37.2,33.1,29.99,SE,135,0.0,0.0,85,0.00,,,0.00,WUHU21623XXSP,2013-02-07 16:47:00,
2013-02-07 10:52:00,37.6,33.4,29.99,SE,135,0.0,0.0,85,0.00,,,0.00,WUHU21623XXSP,2013-02-07 16:52:00,
2013-02-07 10:57:00,37.9,33.6,29.99,SE,135,0.0,0.0,85,0.00,,,0.00,WUHU21623XXSP,2013-02-07 16:57:00,
2013-02-07 11:02:00,38.3,34.2,29.98,SE,135,3.6,3.6,85,0.00,,,0.00,WUHU21623XXSP,2013-02-07 17:02:00,
2013-02-07 11:07:00,38.8,34.7,29.98,SE,135,5.1,9.2,85,0.00,,,0.00,WUHU21623XXSP,2013-02-07 17:07:00,
2013-02-07 11:12:00,39.6,35.4,29.98,SE,135,7.6,9.2,85,0.00,,,0.00,WUHU21623XXSP,2013-02-07 17:12:00,
2013-02-07 11:17:00,39.9,35.4,29.99,SSE,157,0.0,7.6,84,0.00,,,0.00,WUHU21623XXSP,2013-02-07 17:17:00,
2013-02-07 11:22:00,40.3,35.8,29.97,SE,135,0.0,7.6,84,0.00,,,0.00,WUHU21623XXSP,2013-02-07 17:22:00,
2013-02-07 11:27:00,40.5,35.7,29.97,SE,135,3.1,3.1,83,0.00,,,0.00,WUHU21623XXSP,2013-02-07 17:27:00,
2013-02-07 11:32:00,40.6,35.8,29.97,SSE,157,0.0,5.6,83,0.00,,,0.00,WUHU21623XXSP,2013-02-07 17:32:00,
2013-02-07 11:37:00,40.8,36.0,29.96,SSE,157,0.0,6.7,83,0.00,,,0.00,WUHU21623XXSP,2013-02-07 17:37:00,
2013-02-07 11:42:00,41.2,36.3,29.96,SE,135,0.0,6.7,83,0.00,,,0.00,WUHU21623XXSP,2013-02-07 17:42:00,
2013-02-07 11:47:00,41.5,36.4,29.96,SSE,157,0.0,3.4,82,0.00,,,0.00,WUHU21623XXSP,2013-02-07 17:47:00,
2013-02-07 11:52:00,42.1,36.9,29.95,SE,135,4.7,8.1,82,0.00,,,0.00,WUHU21623XXSP,2013-02-07 17:52:00,
2013-02-07 11:57:00,42.1,36.6,29.95,SE,135,5.6,8.1,81,0.00,,,0.00,WUHU21623XXSP,2013-02-07 17:57:00,
2013-02-07 12:02:00,42.1,36.6,29.95,SE,135,5.6,5.6,81,0.00,,,0.00,WUHU21623XXSP,2013-02-07 18:02:00,
2013-02-07 12:07:00,42.1,36.6,29.94,SE,135,2.9,8.1,81,0.00,,,0.00,WUHU21623XXSP,2013-02-07 18:07:00,
2013-02-07 12:12:00,42.4,36.7,29.94,SE,135,1.3,8.1,80,0.00,,,0.00,WUHU21623XXSP,2013-02-07 18:12:00,
2013-02-07 12:17:00,42.6,36.9,29.94,SE,135,5.8,6.5,80,0.00,,,0.00,WUHU21623XXSP,2013-02-07 18:17:00,
2013-02-07 12:22:00,42.6,36.9,29.93,SE,135,7.4,7.4,80,0.00,,,0.00,WUHU21623XXSP,2013-02-07 18:22:00,
2013-02-07 12:27:00,43.0,37.2,29.93,SE,135,4.9,7.4,80,0.00,,,0.00,WUHU21623XXSP,2013-02-07 18:27:00,
2013-02-07 12:32:00,43.5,37.4,29.92,SE,135,6.5,6.7,79,0.00,,,0.00,WUHU21623XXSP,2013-02-07 18:32:00,
2013-02-07 12:37:00,43.9,37.6,29.92,SE,135,0.0,6.7,79,0.00,,,0.00,WUHU21623XXSP,2013-02-07 18:37:00,
2013-02-07 12:42:00,44.1,37.8,29.92,SE,135,0.0,0.0,79,0.00,,,0.00,WUHU21623XXSP,2013-02-07 18:42:00,
2013-02-07 12:47:00,44.4,38.3,29.92,SE,135,0.0,6.9,79,0.00,,,0.00,WUHU21623XXSP,2013-02-07 18:47:00,
2013-02-07 12:52:00,44.4,38.3,29.91,SE,135,0.7,6.9,79,0.00,,,0.00,WUHU21623XXSP,2013-02-07 18:52:00,
2013-02-07 12:57:00,44.8,38.7,29.91,SSE,157,4.5,4.5,79,0.00,,,0.00,WUHU21623XXSP,2013-02-07 18:57:00,
2013-02-07 13:03:00,45.1,39.0,29.90,SE,135,2.0,4.5,79,0.00,,,0.00,WUHU21623XXSP,2013-02-07 19:03:00,
2013-02-07 13:08:00,45.7,38.9,29.90,SSE,157,7.6,7.6,78,0.00,,,0.00,WUHU21623XXSP,2013-02-07 19:08:00,
2013-02-07 13:13:00,45.5,39.2,29.90,SE,135,7.8,7.8,77,0.00,,,0.00,WUHU21623XXSP,2013-02-07 19:13:00,
2013-02-07 13:18:00,45.5,38.5,29.90,SSE,157,8.7,8.7,77,0.00,,,0.00,WUHU21623XXSP,2013-02-07 19:18:00,
2013-02-07 13:23:00,45.1,38.5,29.90,SSE,157,8.7,8.7,77,0.00,,,0.00,WUHU21623XXSP,2013-02-07 19:23:00,
2013-02-07 13:28:00,45.3,38.5,29.90,SE,135,2.9,8.7,76,0.00,,,0.00,WUHU21623XXSP,2013-02-07 19:28:00,
2013-02-07 13:33:00,45.1,38.0,29.89,SE,135,0.0,2.9,76,0.00,,,0.00,WUHU21623XXSP,2013-02-07 19:33:00,
2013-02-07 13:38:00,45.0,38.2,29.89,SE,135,0.0,0.0,77,0.00,,,0.00,WUHU21623XXSP,2013-02-07 19:38:00,
2013-02-07 13:43:00,45.0,38.2,29.89,SSE,157,0.0,0.0,77,0.00,,,0.00,WUHU21623XXSP,2013-02-07 19:43:00,
2013-02-07 13:48:00,44.8,38.0,29.89,SSE,157,3.8,4.9,77,0.00,,,0.00,WUHU21623XXSP,2013-02-07 19:48:00,
2013-02-07 13:53:00,44.8,38.0,29.89,SE,135,0.0,4.9,77,0.00,,,0.00,WUHU21623XXSP,2013-02-07 19:53:00,
2013-02-07 13:58:00,45.0,38.2,29.88,SSE,157,0.0,6.7,77,0.00,,,0.00,WUHU21623XXSP,2013-02-07 19:58:00,
2013-02-07 14:03:00,44.4,37.6,29.88,SSE,157,3.1,6.7,77,0.00,,,0.00,WUHU21623XXSP,2013-02-07 20:03:00,
2013-02-07 14:08:00,44.4,37.6,29.88,SE,135,0.0,3.1,77,0.00,,,0.00,WUHU21623XXSP,2013-02-07 20:08:00,
2013-02-07 14:13:00,44.2,37.8,29.88,SE,135,0.0,3.1,78,0.00,,,0.00,WUHU21623XXSP,2013-02-07 20:13:00,
2013-02-07 14:19:00,44.1,37.6,29.88,SE,135,0.0,0.0,78,0.00,,,0.00,WUHU21623XXSP,2013-02-07 20:19:00,
2013-02-07 14:24:00,43.9,37.8,29.86,SE,135,0.0,0.0,79,0.00,,,0.00,WUHU21623XXSP,2013-02-07 20:24:00,
2013-02-07 14:30:00,43.5,37.4,29.86,SE,135,0.0,0.0,79,0.00,,,0.00,WUHU21623XXSP,2013-02-07 20:30:00,
2013-02-07 14:35:00,43.3,37.6,29.86,SE,135,0.0,0.0,80,0.00,,,0.00,WUHU21623XXSP,2013-02-07 20:35:00,
2013-02-07 14:40:00,43.3,37.9,29.86,SE,135,0.0,0.0,81,0.00,,,0.00,WUHU21623XXSP,2013-02-07 20:40:00,
2013-02-07 14:45:00,43.3,37.9,29.86,SE,135,0.0,0.0,81,0.00,,,0.00,WUHU21623XXSP,2013-02-07 20:45:00,
2013-02-07 14:51:00,43.2,37.7,29.87,SE,135,0.0,0.0,81,0.00,,,0.00,WUHU21623XXSP,2013-02-07 20:51:00,
2013-02-07 14:56:00,43.0,37.8,29.86,SE,135,0.0,0.0,82,0.00,,,0.00,WUHU21623XXSP,2013-02-07 20:56:00,
2013-02-07 15:01:00,42.6,37.8,29.85,SE,135,0.0,0.0,83,0.00,,,0.00,WUHU21623XXSP,2013-02-07 21:01:00,
2013-02-07 15:06:00,42.6,38.0,29.85,SE,135,0.0,0.0,83,0.00,,,0.00,WUHU21623XXSP,2013-02-07 21:06:00,
2013-02-07 15:11:00,42.4,37.9,29.85,SE,135,0.0,0.0,84,0.00,,,0.00,WUHU21623XXSP,2013-02-07 21:11:00,
2013-02-07 15:16:00,42.4,37.9,29.85,SE,135,0.0,0.0,84,0.00,,,0.00,WUHU21623XXSP,2013-02-07 21:16:00,
2013-02-07 15:21:00,42.4,37.9,29.85,SE,135,0.0,0.0,84,0.04,,,0.04,WUHU21623XXSP,2013-02-07 21:21:00,
2013-02-07 15:26:00,42.1,37.9,29.84,SE,135,0.0,0.0,85,0.06,,,0.06,WUHU21623XXSP,2013-02-07 21:26:00,
2013-02-07 15:31:00,42.1,37.9,29.85,SE,135,0.0,0.0,85,0.06,,,0.06,WUHU21623XXSP,2013-02-07 21:31:00,
2013-02-07 15:36:00,42.1,37.9,29.85,SE,135,0.0,0.0,85,0.06,,,0.06,WUHU21623XXSP,2013-02-07 21:36:00,
2013-02-07 15:41:00,41.9,38.0,29.85,SE,135,0.0,0.0,86,0.06,,,0.06,WUHU21623XXSP,2013-02-07 21:41:00,
2013-02-07 15:46:00,41.9,38.0,29.84,SE,135,0.0,0.0,86,0.06,,,0.06,WUHU21623XXSP,2013-02-07 21:46:00,
2013-02-07 15:51:00,41.9,38.0,29.84,SE,135,0.0,0.0,86,0.06,,,0.06,WUHU21623XXSP,2013-02-07 21:51:00,
2013-02-07 15:56:00,41.5,37.8,29.84,SE,135,0.0,0.0,87,0.08,,,0.08,WUHU21623XXSP,2013-02-07 21:56:00,
2013-02-07 16:01:00,41.5,37.9,29.84,SE,135,0.0,0.0,87,0.08,,,0.08,WUHU21623XXSP,2013-02-07 22:01:00,
2013-02-07 16:06:00,41.5,37.9,29.84,SE,135,0.0,0.0,87,0.08,,,0.08,WUHU21623XXSP,2013-02-07 22:06:00,
2013-02-07 16:11:00,41.5,37.9,29.84,SE,135,0.0,0.0,87,0.08,,,0.08,WUHU21623XXSP,2013-02-07 22:11:00,
2013-02-07 16:16:00,41.5,37.9,29.84,SE,135,0.0,0.0,88,0.04,,,0.08,WUHU21623XXSP,2013-02-07 22:16:00,
2013-02-07 16:21:00,41.5,38.2,29.84,SE,135,0.0,0.0,88,0.06,,,0.10,WUHU21623XXSP,2013-02-07 22:21:00,
2013-02-07 16:26:00,41.2,37.9,29.84,SE,135,0.0,0.0,88,0.06,,,0.12,WUHU21623XXSP,2013-02-07 22:26:00,
2013-02-07 16:31:00,41.4,38.0,29.83,SE,135,0.0,0.0,88,0.06,,,0.12,WUHU21623XXSP,2013-02-07 22:31:00,
2013-02-07 16:36:00,41.2,37.9,29.84,SE,135,0.0,0.0,88,0.06,,,0.12,WUHU21623XXSP,2013-02-07 22:36:00,
2013-02-07 16:41:00,41.2,37.9,29.83,SE,135,0.0,0.0,88,0.08,,,0.14,WUHU21623XXSP,2013-02-07 22:41:00,
2013-02-07 16:46:00,40.8,37.5,29.83,SE,135,0.0,0.0,88,0.08,,,0.14,WUHU21623XXSP,2013-02-07 22:46:00,
2013-02-07 16:51:00,40.8,37.5,29.83,SE,135,0.0,0.0,88,0.06,,,0.14,WUHU21623XXSP,2013-02-07 22:51:00,
2013-02-07 16:57:00,40.6,37.6,29.83,SE,135,0.0,0.0,89,0.06,,,0.14,WUHU21623XXSP,2013-02-07 22:57:00,
2013-02-07 17:02:00,40.5,37.5,29.83,SE,135,0.0,0.0,89,0.06,,,0.14,WUHU21623XXSP,2013-02-07 23:02:00,
2013-02-07 17:07:00,40.1,37.1,29.83,SE,135,0.0,0.0,89,0.09,,,0.17,WUHU21623XXSP,2013-02-07 23:07:00,
2013-02-07 17:12:00,39.9,36.9,29.83,SE,135,0.0,0.0,89,0.11,,,0.19,WUHU21623XXSP,2013-02-07 23:12:00,
2013-02-07 17:17:00,39.9,36.9,29.83,SE,135,0.0,0.0,89,0.09,,,0.19,WUHU21623XXSP,2013-02-07 23:17:00,
2013-02-07 17:22:00,39.6,36.6,29.83,SE,135,0.0,0.0,89,0.07,,,0.19,WUHU21623XXSP,2013-02-07 23:22:00,
2013-02-07 17:27:00,39.4,36.6,29.83,SE,135,0.0,0.0,89,0.09,,,0.21,WUHU21623XXSP,2013-02-07 23:27:00,
2013-02-07 17:32:00,39.4,36.7,29.83,SE,135,0.0,0.0,90,0.09,,,0.21,WUHU21623XXSP,2013-02-07 23:32:00,
2013-02-07 17:37:00,39.4,36.7,29.84,SE,135,0.0,0.0,90,0.07,,,0.21,WUHU21623XXSP,2013-02-07 23:37:00,
2013-02-07 17:42:00,39.4,36.7,29.83,ESE,112,0.0,0.0,90,0.07,,,0.21,WUHU21623XXSP,2013-02-07 23:42:00,
2013-02-07 17:47:00,39.2,36.5,29.83,ESE,112,0.0,0.0,90,0.07,,,0.21,WUHU21623XXSP,2013-02-07 23:47:00,
2013-02-07 17:52:00,39.0,36.3,29.83,ESE,112,0.0,0.0,90,0.09,,,0.23,WUHU21623XXSP,2013-02-07 23:52:00,
2013-02-07 17:57:00,39.0,36.3,29.83,ESE,112,0.0,0.0,90,0.11,,,0.25,WUHU21623XXSP,2013-02-07 23:57:00,
2013-02-07 18:02:00,39.0,36.3,29.83,ESE,112,0.0,0.0,90,0.11,,,0.25,WUHU21623XXSP,2013-02-08 00:02:00,
2013-02-07 18:07:00,39.0,36.3,29.83,ESE,112,0.0,0.0,90,0.08,,,0.27,WUHU21623XXSP,2013-02-08 00:07:00,
2013-02-07 18:12:00,39.0,36.3,29.84,ESE,112,0.0,0.0,90,0.08,,,0.27,WUHU21623XXSP,2013-02-08 00:12:00,
2013-02-07 18:17:00,39.0,36.3,29.84,ESE,112,0.0,0.0,90,0.08,,,0.27,WUHU21623XXSP,2013-02-08 00:17:00,
2013-02-07 18:22:00,39.0,36.3,29.84,ESE,112,0.0,0.0,90,0.08,,,0.29,WUHU21623XXSP,2013-02-08 00:22:00,
2013-02-07 18:27:00,39.0,36.3,29.84,ESE,112,0.0,0.0,90,0.10,,,0.31,WUHU21623XXSP,2013-02-08 00:27:00,
2013-02-07 18:32:00,39.0,36.3,29.84,ESE,112,0.0,0.0,90,0.10,,,0.31,WUHU21623XXSP,2013-02-08 00:32:00,
2013-02-07 18:37:00,39.0,36.0,29.85,ESE,112,0.0,0.0,90,0.10,,,0.31,WUHU21623XXSP,2013-02-08 00:37:00,
2013-02-07 18:42:00,39.0,36.3,29.85,ESE,112,0.0,0.0,89,0.10,,,0.31,WUHU21623XXSP,2013-02-08 00:42:00,
2013-02-07 18:47:00,39.0,36.0,29.85,West,270,0.0,0.0,89,0.10,,,0.31,WUHU21623XXSP,2013-02-08 00:47:00,
2013-02-07 18:52:00,39.0,36.0,29.85,WNW,292,0.0,0.0,89,0.06,,,0.31,WUHU21623XXSP,2013-02-08 00:52:00,
2013-02-07 18:57:00,39.0,36.0,29.84,West,270,0.0,0.0,89,0.06,,,0.31,WUHU21623XXSP,2013-02-08 00:57:00,
2013-02-07 19:02:00,39.0,35.7,29.84,West,270,0.0,0.0,88,0.04,,,0.31,WUHU21623XXSP,2013-02-08 01:02:00,
2013-02-07 19:07:00,39.0,35.7,29.85,West,270,0.0,0.0,88,0.04,,,0.31,WUHU21623XXSP,2013-02-08 01:07:00,
2013-02-07 19:13:00,38.8,35.6,29.85,West,270,0.0,5.1,88,0.04,,,0.31,WUHU21623XXSP,2013-02-08 01:13:00,
2013-02-07 19:18:00,38.1,35.2,29.85,WNW,292,2.0,5.1,89,0.02,,,0.31,WUHU21623XXSP,2013-02-08 01:18:00,
2013-02-07 19:25:00,37.4,34.4,29.85,West,270,0.2,3.6,89,0.00,,,0.31,WUHU21623XXSP,2013-02-08 01:25:00,
2013-02-07 19:30:00,36.7,33.4,29.85,West,270,0.0,3.6,88,0.00,,,0.31,WUHU21623XXSP,2013-02-08 01:30:00,
2013-02-07 19:35:00,36.5,33.2,29.85,NW,315,5.6,6.3,88,0.00,,,0.31,WUHU21623XXSP,2013-02-08 01:35:00,
2013-02-07 19:40:00,36.1,33.0,29.85,NW,315,1.6,6.7,88,0.00,,,0.31,WUHU21623XXSP,2013-02-08 01:40:00,
2013-02-07 19:45:00,36.0,32.7,29.85,WNW,292,2.2,6.7,88,0.00,,,0.31,WUHU21623XXSP,2013-02-08 01:45:00,
2013-02-07 19:50:00,35.8,32.5,29.85,NW,315,3.1,5.8,88,0.00,,,0.31,WUHU21623XXSP,2013-02-08 01:50:00,
2013-02-07 19:55:00,35.6,32.5,29.85,WNW,292,2.7,9.2,88,0.02,,,0.33,WUHU21623XXSP,2013-02-08 01:55:00,
2013-02-07 20:00:00,35.4,32.1,29.85,NW,315,7.2,11.4,88,0.02,,,0.33,WUHU21623XXSP,2013-02-08 02:00:00,
2013-02-07 20:05:00,35.4,32.1,29.85,WNW,292,8.3,11.4,88,0.02,,,0.33,WUHU21623XXSP,2013-02-08 02:05:00,
2013-02-07 20:10:00,35.2,32.0,29.85,NW,315,0.0,8.3,88,0.02,,,0.33,WUHU21623XXSP,2013-02-08 02:10:00,
2013-02-07 20:15:00,35.2,32.0,29.85,NW,315,9.8,9.8,88,0.02,,,0.33,WUHU21623XXSP,2013-02-08 02:15:00,
2013-02-07 20:20:00,35.2,32.0,29.85,NW,315,9.4,10.3,88,0.02,,,0.33,WUHU21623XXSP,2013-02-08 02:20:00,
2013-02-07 20:26:00,35.2,31.7,29.85,West,270,6.0,10.3,87,0.02,,,0.33,WUHU21623XXSP,2013-02-08 02:26:00,
2013-02-07 20:31:00,35.2,31.7,29.85,West,270,0.0,9.4,87,0.02,,,0.33,WUHU21623XXSP,2013-02-08 02:31:00,
2013-02-07 20:36:00,34.9,31.3,29.85,WNW,292,0.0,6.0,87,0.02,,,0.33,WUHU21623XXSP,2013-02-08 02:36:00,
2013-02-07 20:41:00,34.7,31.3,29.85,WNW,292,4.7,4.7,87,0.02,,,0.33,WUHU21623XXSP,2013-02-08 02:41:00,
2013-02-07 20:46:00,34.5,31.0,29.85,NW,315,3.6,7.2,87,0.02,,,0.33,WUHU21623XXSP,2013-02-08 02:46:00,
2013-02-07 20:51:00,34.3,30.5,29.86,NW,315,0.0,7.2,86,0.00,,,0.33,WUHU21623XXSP,2013-02-08 02:51:00,
2013-02-07 20:56:00,34.3,30.5,29.86,West,270,0.0,3.6,86,0.00,,,0.33,WUHU21623XXSP,2013-02-08 02:56:00,
2013-02-07 21:01:00,34.3,30.5,29.86,West,270,2.0,2.0,86,0.00,,,0.33,WUHU21623XXSP,2013-02-08 03:01:00,
2013-02-07 21:06:00,34.3,30.5,29.87,West,270,0.0,12.3,86,0.00,,,0.33,WUHU21623XXSP,2013-02-08 03:06:00,
2013-02-07 21:12:00,34.3,30.5,29.87,West,270,4.5,12.3,86,0.00,,,0.33,WUHU21623XXSP,2013-02-08 03:12:00,
2013-02-07 21:17:00,34.3,30.5,29.87,WNW,292,4.5,10.3,86,0.00,,,0.33,WUHU21623XXSP,2013-02-08 03:17:00,
2013-02-07 21:22:00,34.3,30.2,29.87,WNW,292,0.0,10.3,85,0.00,,,0.33,WUHU21623XXSP,2013-02-08 03:22:00,
2013-02-07 21:27:00,34.3,30.2,29.87,WNW,292,5.6,13.6,85,0.00,,,0.33,WUHU21623XXSP,2013-02-08 03:27:00,
2013-02-07 21:32:00,34.3,30.2,29.88,WNW,292,2.2,13.6,85,0.00,,,0.33,WUHU21623XXSP,2013-02-08 03:32:00,
2013-02-07 21:37:00,34.3,30.2,29.88,WNW,292,1.6,7.4,85,0.00,,,0.33,WUHU21623XXSP,2013-02-08 03:37:00,
2013-02-07 21:42:00,34.3,30.2,29.89,NW,315,8.3,8.3,85,0.00,,,0.33,WUHU21623XXSP,2013-02-08 03:42:00,
2013-02-07 21:47:00,34.2,30.0,29.89,NW,315,8.3,8.3,85,0.00,,,0.33,WUHU21623XXSP,2013-02-08 03:47:00,
2013-02-07 21:52:00,34.2,30.0,29.89,West,270,6.9,8.3,85,0.00,,,0.33,WUHU21623XXSP,2013-02-08 03:52:00,
2013-02-07 21:57:00,34.0,29.8,29.88,WNW,292,14.3,14.3,85,0.00,,,0.33,WUHU21623XXSP,2013-02-08 03:57:00,
2013-02-07 22:02:00,34.0,29.8,29.88,WNW,292,5.1,14.3,85,0.00,,,0.33,WUHU21623XXSP,2013-02-08 04:02:00,
2013-02-07 22:07:00,33.8,29.7,29.89,West,270,4.9,5.1,85,0.00,,,0.33,WUHU21623XXSP,2013-02-08 04:07:00,
2013-02-07 22:12:00,33.8,29.7,29.89,WNW,292,12.1,12.1,85,0.00,,,0.33,WUHU21623XXSP,2013-02-08 04:12:00,
2013-02-07 22:17:00,33.8,29.7,29.89,WNW,292,7.4,15.4,85,0.00,,,0.33,WUHU21623XXSP,2013-02-08 04:17:00,
2013-02-07 22:22:00,33.8,29.7,29.89,NW,315,12.8,15.4,85,0.00,,,0.33,WUHU21623XXSP,2013-02-08 04:22:00,
2013-02-07 22:27:00,33.8,29.7,29.89,NW,315,10.3,12.8,85,0.00,,,0.33,WUHU21623XXSP,2013-02-08 04:27:00,
2013-02-07 22:32:00,33.8,29.7,29.89,NW,315,7.2,10.3,85,0.00,,,0.33,WUHU21623XXSP,2013-02-08 04:32:00,
2013-02-07 22:37:00,33.8,29.7,29.89,NW,315,5.8,10.3,85,0.00,,,0.33,WUHU21623XXSP,2013-02-08 04:37:00,
2013-02-07 22:42:00,33.8,29.7,29.89,WNW,292,7.4,10.1,85,0.00,,,0.33,WUHU21623XXSP,2013-02-08 04:42:00,
2013-02-07 22:47:00,34.0,29.8,29.89,NW,315,11.9,15.0,85,0.00,,,0.33,WUHU21623XXSP,2013-02-08 04:47:00,
2013-02-07 22:52:00,34.0,29.8,29.89,NW,315,9.2,15.0,85,0.00,,,0.33,WUHU21623XXSP,2013-02-08 04:52:00,
2013-02-07 22:57:00,34.0,29.8,29.89,NW,315,7.8,15.2,85,0.00,,,0.33,WUHU21623XXSP,2013-02-08 04:57:00,
2013-02-07 23:00:00,33.8,29.7,29.89,NW,315,8.9,15.2,85,0.00,,,0.33,WUHU21623XXSP,2013-02-08 05:00:00,
2013-02-07 23:01:00,34.0,29.8,29.90,WNW,292,6.0,15.2,85,0.00,,,0.33,WUHU21623XXSP,2013-02-08 05:01:00,
2013-02-07 23:06:00,33.8,29.7,29.90,WNW,292,10.3,10.3,85,0.00,,,0.33,WUHU21623XXSP,2013-02-08 05:06:00,
2013-02-07 23:11:00,33.8,29.9,29.90,NNW,337,12.8,15.7,86,0.00,,,0.33,WUHU21623XXSP,2013-02-08 05:11:00,
2013-02-07 23:16:00,33.8,30.1,29.90,WNW,292,10.7,15.7,86,0.00,,,0.33,WUHU21623XXSP,2013-02-08 05:16:00,
2013-02-07 23:21:00,33.8,29.9,29.90,NW,315,12.1,12.1,86,0.00,,,0.33,WUHU21623XXSP,2013-02-08 05:21:00,
2013-02-07 23:26:00,34.0,30.2,29.90,NW,315,5.4,12.1,87,0.00,,,0.33,WUHU21623XXSP,2013-02-08 05:26:00,
2013-02-07 23:31:00,34.0,30.4,29.91,NW,315,7.8,12.1,87,0.00,,,0.33,WUHU21623XXSP,2013-02-08 05:31:00,
2013-02-07 23:36:00,34.0,30.2,29.91,NW,315,9.2,9.2,87,0.00,,,0.33,WUHU21623XXSP,2013-02-08 05:36:00,
2013-02-07 23:41:00,34.0,30.4,29.91,NW,315,12.5,12.5,87,0.00,,,0.33,WUHU21623XXSP,2013-02-08 05:41:00,
2013-02-07 23:46:00,34.0,30.7,29.91,NNW,337,10.1,14.1,88,0.00,,,0.33,WUHU21623XXSP,2013-02-08 05:46:00,
2013-02-07 23:51:00,34.0,30.7,29.91,NW,315,8.5,14.1,88,0.00,,,0.33,WUHU21623XXSP,2013-02-08 05:51:00,
2013-02-07 23:56:00,34.0,30.7,29.91,NNW,337,8.7,8.7,88,0.00,,,0.33,WUHU21623XXSP,2013-02-08 05:56:00,